Time;durP1;ratioP1;P1;durP2;ratioP2;P2;SDS_P1;SDS_P2;PMS_P1;PMS_P2;Temp;Humidity;BMP_temperature;BMP_pressure;BME280_temperature;BME280_humidity;BME280_pressure;Samples;Min_cycle;Max_cycle;Signal;HPM_P1;HPM_P2
2021/03/18 00:02:19;;;;;;;7.00;4.07;;;1.60;99.90;;;;;;6182974;23;20024;-94
2021/03/18 00:04:50;;;;;;;6.82;3.78;;;1.70;99.90;;;;;;6213663;23;20056;-93
2021/03/18 00:07:19;;;;;;;8.07;4.17;;;1.70;99.90;;;;;;6187252;23;20069;-93
2021/03/18 00:09:48;;;;;;;7.80;3.42;;;1.90;99.90;;;;;;6185026;23;20021;-94
2021/03/18 00:12:17;;;;;;;6.13;3.58;;;2.00;99.90;;;;;;6184117;23;20017;-94
2021/03/18 00:14:46;;;;;;;8.30;3.93;;;2.10;99.90;;;;;;6185615;23;20023;-93
2021/03/18 00:17:16;;;;;;;7.47;4.27;;;2.10;99.90;;;;;;6181954;23;20017;-94
2021/03/18 00:19:44;;;;;;;7.90;4.20;;;2.20;99.90;;;;;;6192860;23;20028;-94
2021/03/18 00:22:15;;;;;;;8.17;4.03;;;2.40;99.90;;;;;;6167842;23;20040;-93
2021/03/18 00:24:44;;;;;;;9.60;3.90;;;2.40;99.90;;;;;;6174918;23;20031;-93
2021/03/18 00:27:15;;;;;;;6.65;3.70;;;2.30;99.90;;;;;;6167671;23;20017;-94
2021/03/18 00:29:44;;;;;;;9.10;4.07;;;2.40;99.90;;;;;;6164265;23;20305;-93
2021/03/18 00:32:14;;;;;;;8.35;3.90;;;2.40;99.90;;;;;;6165235;23;20017;-94
2021/03/18 00:34:46;;;;;;;9.40;4.30;;;2.30;99.90;;;;;;6163226;23;20065;-94
2021/03/18 00:37:17;;;;;;;8.93;5.03;;;2.30;99.90;;;;;;6164043;23;20048;-94
2021/03/18 00:39:49;;;;;;;8.52;4.28;;;2.20;99.90;;;;;;6164234;23;20027;-93
2021/03/18 00:42:16;;;;;;;7.13;4.20;;;2.20;99.90;;;;;;6163740;23;20021;-93
2021/03/18 00:44:45;;;;;;;7.85;4.18;;;2.30;99.90;;;;;;6187920;23;20016;-91
2021/03/18 00:47:13;;;;;;;7.53;4.37;;;2.10;99.90;;;;;;6189399;23;20017;-93
2021/03/18 00:49:44;;;;;;;8.13;4.88;;;2.10;99.90;;;;;;6189822;23;20031;-93
2021/03/18 00:52:12;;;;;;;8.97;5.27;;;2.00;99.90;;;;;;6172582;23;20028;-93
2021/03/18 00:54:41;;;;;;;8.07;4.90;;;2.00;99.90;;;;;;6183224;23;20025;-92
2021/03/18 00:57:15;;;;;;;7.53;4.67;;;2.00;99.90;;;;;;6184725;23;20013;-93
2021/03/18 00:59:42;;;;;;;7.53;4.90;;;2.00;99.90;;;;;;6202480;23;20021;-92
2021/03/18 01:02:10;;;;;;;10.43;5.37;;;2.00;99.90;;;;;;6186344;23;20108;-91
2021/03/18 01:04:38;;;;;;;11.57;5.20;;;1.90;99.90;;;;;;6184455;23;20029;-92
2021/03/18 01:07:10;;;;;;;9.60;5.17;;;1.60;99.90;;;;;;6183294;23;20017;-91
2021/03/18 01:09:38;;;;;;;7.33;4.93;;;1.60;99.90;;;;;;6202033;23;20035;-90
2021/03/18 01:12:09;;;;;;;8.13;5.00;;;1.50;99.90;;;;;;6208505;23;20028;-93
2021/03/18 01:14:38;;;;;;;10.07;5.07;;;1.50;99.90;;;;;;6166032;23;20020;-92
2021/03/18 01:17:10;;;;;;;9.67;5.23;;;1.30;99.90;;;;;;6205450;23;20021;-92
2021/03/18 01:19:42;;;;;;;7.67;4.43;;;1.20;99.90;;;;;;6184473;23;20031;-91
2021/03/18 01:22:13;;;;;;;10.07;5.03;;;1.20;99.90;;;;;;6183356;23;20027;-91
2021/03/18 01:24:41;;;;;;;9.07;4.90;;;1.10;99.90;;;;;;6168664;23;20025;-91
2021/03/18 01:27:13;;;;;;;9.17;5.37;;;1.00;99.90;;;;;;6169627;23;20013;-92
2021/03/18 01:29:41;;;;;;;8.83;5.17;;;1.00;99.90;;;;;;6167191;23;20017;-92
2021/03/18 01:32:11;;;;;;;11.60;5.30;;;1.00;99.90;;;;;;6190527;23;20319;-93
2021/03/18 01:34:39;;;;;;;10.53;5.20;;;0.90;99.90;;;;;;6172272;23;20021;-93
2021/03/18 01:37:06;;;;;;;11.10;6.73;;;0.90;99.90;;;;;;6188824;23;20029;-95
2021/03/18 01:39:39;;;;;;;13.32;6.03;;;0.80;99.90;;;;;;6189309;23;20028;-93
2021/03/18 01:42:09;;;;;;;9.80;5.40;;;0.80;99.90;;;;;;6163962;23;20025;-94
2021/03/18 01:44:39;;;;;;;12.98;5.43;;;0.80;99.90;;;;;;6163833;23;20025;-95
2021/03/18 01:47:08;;;;;;;9.57;5.53;;;0.80;99.90;;;;;;6188993;23;20017;-94
2021/03/18 01:49:38;;;;;;;11.90;5.83;;;0.70;99.90;;;;;;6163999;23;20017;-95
2021/03/18 01:52:06;;;;;;;10.47;5.63;;;0.70;99.90;;;;;;6164425;23;20432;-94
2021/03/18 01:54:39;;;;;;;11.57;5.80;;;0.70;99.90;;;;;;6164196;23;20027;-94
2021/03/18 01:57:09;;;;;;;11.00;5.80;;;0.70;99.90;;;;;;6189141;23;20440;-94
2021/03/18 01:59:37;;;;;;;11.43;5.63;;;0.80;99.90;;;;;;6164375;23;20320;-93
2021/03/18 02:02:08;;;;;;;12.53;6.30;;;0.80;99.90;;;;;;6164629;23;20437;-94
2021/03/18 02:04:43;;;;;;;9.17;5.30;;;0.80;99.90;;;;;;6166366;23;20437;-93
2021/03/18 02:07:12;;;;;;;8.98;5.35;;;0.80;99.90;;;;;;6188388;23;20312;-95
2021/03/18 02:09:42;;;;;;;9.63;5.03;;;0.70;99.90;;;;;;6188008;23;20021;-95
2021/03/18 02:12:11;;;;;;;9.13;5.30;;;0.70;99.90;;;;;;6164294;23;20298;-92
2021/03/18 02:14:41;;;;;;;14.37;6.60;;;0.80;99.90;;;;;;6164618;23;20316;-92
2021/03/18 02:17:15;;;;;;;11.40;5.90;;;0.80;99.90;;;;;;6189091;23;20311;-92
2021/03/18 02:20:19;;;;;;;12.37;6.17;;;0.70;99.90;;;;;;6163543;23;20017;-91
2021/03/18 02:23:15;;;;;;;11.27;5.70;;;0.80;99.90;;;;;;6164281;23;20028;-93
2021/03/18 02:26:00;;;;;;;9.60;5.70;;;0.70;99.90;;;;;;6164326;23;20020;-93
2021/03/18 02:28:53;;;;;;;11.43;6.13;;;0.70;99.90;;;;;;6162638;23;20467;-93
2021/03/18 02:31:33;;;;;;;10.97;5.77;;;0.60;99.90;;;;;;6164257;23;20024;-94
2021/03/18 02:34:36;;;;;;;11.37;6.60;;;0.60;99.90;;;;;;6164535;23;20024;-93
2021/03/18 02:37:13;;;;;;;11.03;6.13;;;0.60;99.90;;;;;;6139725;23;20432;-93
2021/03/18 02:39:48;;;;;;;11.50;6.67;;;0.50;99.90;;;;;;6164110;23;20467;-95
2021/03/18 02:42:22;;;;;;;10.30;5.47;;;0.50;99.90;;;;;;6187448;23;20028;-93
2021/03/18 02:44:55;;;;;;;11.67;6.93;;;0.50;99.90;;;;;;6164131;23;20066;-92
2021/03/18 02:47:25;;;;;;;10.97;6.37;;;0.50;99.90;;;;;;6189015;23;20013;-93
2021/03/18 02:49:55;;;;;;;10.60;6.43;;;0.50;99.90;;;;;;6164767;23;20443;-94
2021/03/18 02:52:29;;;;;;;10.35;5.93;;;0.50;99.90;;;;;;6205794;23;20021;-92
2021/03/18 02:54:58;;;;;;;14.13;6.10;;;0.40;99.90;;;;;;6167668;23;20040;-93
2021/03/18 02:57:30;;;;;;;13.47;6.37;;;0.40;99.90;;;;;;6164314;23;20436;-94
2021/03/18 03:00:06;;;;;;;11.10;6.83;;;0.30;99.90;;;;;;6164587;23;20029;-93
2021/03/18 03:02:34;;;;;;;13.70;6.23;;;0.40;99.90;;;;;;6164047;23;20028;-93
2021/03/18 03:05:04;;;;;;;12.80;5.97;;;0.40;99.90;;;;;;6163657;23;20021;-93
2021/03/18 03:07:38;;;;;;;12.70;6.67;;;0.40;99.90;;;;;;6188163;23;20017;-92
2021/03/18 03:10:08;;;;;;;12.53;6.67;;;0.40;99.90;;;;;;6191141;23;20016;-91
2021/03/18 03:12:39;;;;;;;11.57;6.47;;;0.30;99.90;;;;;;6169167;23;20017;-92
2021/03/18 03:15:10;;;;;;;10.93;6.78;;;0.30;99.90;;;;;;6198960;23;20060;-91
2021/03/18 03:17:40;;;;;;;12.83;7.27;;;0.30;99.90;;;;;;6176555;23;20023;-91
2021/03/18 03:20:10;;;;;;;11.25;6.38;;;0.30;99.90;;;;;;6185406;23;20019;-89
2021/03/18 03:22:41;;;;;;;12.43;6.43;;;0.20;99.90;;;;;;6185098;23;20316;-91
2021/03/18 03:25:13;;;;;;;18.40;7.20;;;0.20;99.90;;;;;;6187435;23;20060;-92
2021/03/18 03:27:43;;;;;;;13.10;6.90;;;0.20;99.90;;;;;;6186317;23;20408;-92
2021/03/18 03:30:12;;;;;;;13.20;6.47;;;0.20;99.90;;;;;;6207342;23;20021;-91
2021/03/18 03:32:42;;;;;;;15.68;6.85;;;0.20;99.90;;;;;;6187899;23;20062;-92
2021/03/18 03:35:18;;;;;;;12.90;6.87;;;0.30;99.90;;;;;;6211324;23;20069;-89
2021/03/18 03:37:46;;;;;;;13.43;6.78;;;0.20;99.90;;;;;;6188203;23;20372;-93
2021/03/18 03:40:18;;;;;;;14.75;6.85;;;0.20;99.90;;;;;;6199586;23;20025;-93
2021/03/18 03:42:47;;;;;;;14.73;7.27;;;0.30;99.90;;;;;;6177851;23;20017;-92
2021/03/18 03:45:16;;;;;;;14.00;6.53;;;0.20;99.90;;;;;;6207486;23;20031;-94
2021/03/18 03:47:45;;;;;;;;;;;0.20;99.90;;;;;;6172526;23;20027;-92
2021/03/18 03:50:14;;;;;;;;;;;0.20;99.90;;;;;;6186528;23;20315;-89
2021/03/18 03:52:51;;;;;;;11.27;6.40;;;0.20;99.90;;;;;;6163138;23;19916;-92
2021/03/18 03:55:35;;;;;;;15.43;7.25;;;0.20;99.90;;;;;;6187833;23;20031;-93
2021/03/18 03:58:11;;;;;;;13.90;7.43;;;0.20;99.90;;;;;;6163714;23;20013;-92
2021/03/18 04:00:41;;;;;;;14.53;8.03;;;0.20;99.90;;;;;;6187759;23;20025;-91
2021/03/18 04:03:11;;;;;;;12.70;6.77;;;0.20;99.90;;;;;;6187870;23;20025;-92
2021/03/18 04:05:44;;;;;;;15.90;8.00;;;0.20;99.90;;;;;;6163229;23;20021;-92
2021/03/18 04:08:19;;;;;;;13.33;7.97;;;0.10;99.90;;;;;;6163494;23;20040;-94
2021/03/18 04:10:57;;;;;;;13.30;7.73;;;0.20;99.90;;;;;;6168096;23;20021;-93
2021/03/18 04:13:27;;;;;;;15.70;7.07;;;0.20;99.90;;;;;;6194344;23;20021;-91
2021/03/18 04:16:01;;;;;;;13.30;7.77;;;0.20;99.90;;;;;;6187760;23;20021;-91
2021/03/18 04:18:36;;;;;;;18.20;8.63;;;0.10;99.90;;;;;;6163295;23;20396;-91
2021/03/18 04:21:09;;;;;;;13.80;8.30;;;0.20;99.90;;;;;;6167104;23;20021;-91
2021/03/18 04:23:43;;;;;;;14.77;7.70;;;0.30;99.90;;;;;;6168692;23;20017;-92
2021/03/18 04:26:14;;;;;;;15.87;8.20;;;0.40;99.90;;;;;;6204001;23;20027;-93
2021/03/18 04:28:45;;;;;;;18.00;9.18;;;0.40;99.90;;;;;;6177751;23;20023;-91
2021/03/18 04:31:13;;;;;;;19.53;10.10;;;0.30;99.90;;;;;;6211748;23;20072;-91
2021/03/18 04:33:43;;;;;;;24.30;10.32;;;0.40;99.90;;;;;;6197428;23;20021;-91
2021/03/18 04:36:12;;;;;;;17.73;9.30;;;0.60;99.90;;;;;;6172802;23;20021;-92
2021/03/18 04:38:45;;;;;;;17.43;9.47;;;0.60;99.90;;;;;;6167802;23;20351;-91
2021/03/18 04:41:13;;;;;;;19.07;10.17;;;0.60;99.90;;;;;;6191684;23;20016;-92
2021/03/18 04:43:42;;;;;;;16.30;9.47;;;0.70;99.90;;;;;;6167924;23;20021;-90
2021/03/18 04:46:09;;;;;;;15.80;9.63;;;0.60;99.90;;;;;;6162761;23;20028;-93
2021/03/18 04:48:42;;;;;;;18.67;10.17;;;0.60;99.90;;;;;;6163096;23;20601;-93
2021/03/18 04:51:13;;;;;;;20.07;10.33;;;0.60;99.90;;;;;;6162233;23;20021;-92
2021/03/18 04:53:44;;;;;;;17.77;9.83;;;0.80;99.90;;;;;;6191403;23;20039;-92
2021/03/18 04:56:30;;;;;;;23.80;10.37;;;0.90;99.90;;;;;;6168091;23;20385;-93
2021/03/18 04:59:01;;;;;;;15.40;9.30;;;0.90;99.90;;;;;;6168183;23;20013;-91
2021/03/18 05:01:30;;;;;;;20.53;10.67;;;0.90;99.90;;;;;;6168467;23;20069;-94
2021/03/18 05:03:59;;;;;;;18.83;10.37;;;0.90;99.90;;;;;;6168024;23;20027;-92
2021/03/18 05:06:30;;;;;;;18.13;10.40;;;0.90;99.90;;;;;;6192231;23;20031;-92
2021/03/18 05:09:01;;;;;;;15.70;9.73;;;1.00;99.90;;;;;;6168743;23;20016;-93
2021/03/18 05:11:29;;;;;;;19.60;9.50;;;1.00;99.90;;;;;;6167767;23;20020;-94
2021/03/18 05:13:59;;;;;;;16.70;9.43;;;1.00;99.90;;;;;;6167693;23;20345;-91
2021/03/18 05:16:30;;;;;;;19.23;10.40;;;0.90;99.90;;;;;;6170577;23;20028;-93
2021/03/18 05:19:07;;;;;;;19.30;10.63;;;1.00;99.90;;;;;;6169063;23;20424;-93
2021/03/18 05:21:37;;;;;;;18.47;10.13;;;1.10;99.90;;;;;;6170760;23;20024;-92
2021/03/18 05:24:08;;;;;;;20.92;10.38;;;1.30;99.90;;;;;;6170339;23;20023;-91
2021/03/18 05:26:36;;;;;;;20.13;10.40;;;1.60;99.90;;;;;;6172046;23;20031;-85
2021/03/18 05:29:08;;;;;;;17.43;8.70;;;1.80;99.90;;;;;;6231425;23;19997;-88
2021/03/18 05:31:36;;;;;;;16.50;9.37;;;1.90;99.90;;;;;;6195552;23;20060;-86
2021/03/18 05:48:16;;;;;;;19.07;10.63;;;1.70;99.90;;;;;;6193335;23;20065;-89
2021/03/18 05:50:51;;;;;;;24.80;10.47;;;1.70;99.90;;;;;;6163519;23;20065;-88
2021/03/18 05:53:19;;;;;;;23.17;10.30;;;1.80;99.90;;;;;;6158940;23;20021;-87
2021/03/18 05:55:49;;;;;;;16.87;10.20;;;1.80;99.90;;;;;;6152132;23;20444;-86
2021/03/18 05:58:19;;;;;;;15.33;9.50;;;1.80;99.90;;;;;;6131985;23;20017;-85
2021/03/18 06:00:59;;;;;;;22.17;9.73;;;1.90;99.90;;;;;;6171094;23;20027;-88
2021/03/18 06:03:34;;;;;;;21.47;10.03;;;1.90;99.90;;;;;;6145314;23;20017;-85
2021/03/18 06:06:07;;;;;;;22.43;10.00;;;2.00;99.90;;;;;;6130869;23;20009;-86
2021/03/18 06:08:41;;;;;;;31.27;10.77;;;2.20;99.90;;;;;;6164229;23;20005;-89
2021/03/18 06:11:11;;;;;;;19.67;10.60;;;2.20;99.90;;;;;;6176705;23;20017;-87
2021/03/18 06:13:40;;;;;;;20.20;9.63;;;2.20;99.90;;;;;;6186675;23;20072;-86
2021/03/18 06:16:10;;;;;;;18.95;9.73;;;2.20;99.90;;;;;;6203563;23;20405;-88
2021/03/18 06:18:45;;;;;;;17.97;10.43;;;2.20;99.90;;;;;;6169449;23;20028;-93
2021/03/18 06:21:16;;;;;;;20.33;11.23;;;2.20;99.90;;;;;;6117424;23;20025;-91
2021/03/18 06:26:45;;;;;;;22.27;10.53;;;2.30;99.90;;;;;;6152639;23;20016;-90
2021/03/18 06:29:32;;;;;;;17.70;9.75;;;2.50;99.90;;;;;;6184465;23;20009;-90
2021/03/18 06:32:20;;;;;;;20.83;10.53;;;2.50;99.90;;;;;;6189105;23;20072;-85
2021/03/18 06:34:55;;;;;;;17.73;10.00;;;2.40;99.90;;;;;;6165097;23;20064;-86
2021/03/18 06:49:39;;;;;;;20.70;10.70;;;2.40;99.90;;;;;;6206156;23;20046;-89
2021/03/18 06:52:15;;;;;;;21.87;10.93;;;2.60;99.90;;;;;;6174232;23;20025;-87
2021/03/18 06:55:01;;;;;;;19.70;11.23;;;2.80;99.90;;;;;;6163929;23;20023;-91
2021/03/18 06:57:34;;;;;;;22.70;10.40;;;2.90;99.90;;;;;;6139339;23;20077;-90
2021/03/18 07:00:08;;;;;;;17.57;10.27;;;2.90;99.90;;;;;;6163918;23;20069;-89
2021/03/18 07:11:55;;;;;;;20.00;9.90;;;2.50;99.90;;;;;;6171135;23;20024;31
2021/03/18 07:14:34;;;;;;;21.60;11.03;;;2.50;99.90;;;;;;6128752;23;20085;-83
2021/03/18 07:22:54;;;;;;;24.33;11.93;;;2.50;99.90;;;;;;6175852;23;20442;-84
2021/03/18 07:31:13;;;;;;;26.77;12.27;;;2.80;99.90;;;;;;6158064;23;20320;-87
2021/03/18 07:33:43;;;;;;;22.63;12.17;;;2.90;99.90;;;;;;6142075;23;20021;-92
2021/03/18 07:36:11;;;;;;;23.65;11.93;;;3.00;99.90;;;;;;6163623;23;20028;-89
2021/03/18 07:38:41;;;;;;;27.20;12.43;;;3.10;99.90;;;;;;6140200;23;20017;-91
2021/03/18 07:41:13;;;;;;;18.88;11.57;;;3.10;99.90;;;;;;6138589;23;20389;-92
2021/03/18 07:43:43;;;;;;;24.20;11.80;;;3.30;99.90;;;;;;6138931;23;20021;-92
2021/03/18 07:46:14;;;;;;;18.27;11.00;;;3.50;99.90;;;;;;6164313;23;20021;-90
2021/03/18 07:48:42;;;;;;;19.40;11.13;;;3.60;99.90;;;;;;6164649;23;20021;-91
2021/03/18 07:51:11;;;;;;;19.08;11.35;;;3.60;99.90;;;;;;6141762;23;20025;-90
2021/03/18 07:53:39;;;;;;;;;;;3.70;99.90;;;;;;6162310;23;20032;-91
2021/03/18 07:56:12;;;;;;;25.40;10.90;;;3.80;99.90;;;;;;6163525;23;19923;-92
2021/03/18 07:58:41;;;;;;;20.97;10.87;;;3.80;99.90;;;;;;6116011;23;20017;-91
2021/03/18 08:01:40;;;;;;;22.05;9.73;;;4.10;99.90;;;;;;6164452;23;20027;-91
2021/03/18 08:04:10;;;;;;;19.77;9.90;;;4.30;99.90;;;;;;6163784;23;20308;-91
2021/03/18 08:06:52;;;;;;;20.43;9.73;;;4.30;99.90;;;;;;6139101;23;20310;-91
2021/03/18 08:09:59;;;;;;;17.67;10.18;;;4.40;99.90;;;;;;6163937;23;20017;-92
2021/03/18 08:12:47;;;;;;;16.65;9.55;;;4.50;99.90;;;;;;6138034;23;20024;-91
2021/03/18 08:15:30;;;;;;;28.48;9.45;;;4.50;99.90;;;;;;6136554;23;20025;-91
2021/03/18 08:18:39;;;;;;;17.17;9.93;;;4.80;99.90;;;;;;6163779;23;20017;-90
2021/03/18 08:21:11;;;;;;;20.83;9.35;;;5.10;99.90;;;;;;6164004;23;20017;-91
2021/03/18 08:23:43;;;;;;;29.27;9.57;;;5.20;99.90;;;;;;6139205;23;20424;-89
2021/03/18 08:26:19;;;;;;;15.35;9.80;;;5.50;99.90;;;;;;6163572;23;20017;-92
2021/03/18 08:28:48;;;;;;;18.90;9.82;;;5.70;99.90;;;;;;6187844;23;20036;-92
2021/03/18 08:31:18;;;;;;;16.30;9.13;;;5.70;99.90;;;;;;6137958;23;20021;-92
2021/03/18 08:33:53;;;;;;;23.60;10.35;;;5.70;99.90;;;;;;6115041;23;20021;-92
2021/03/18 08:36:27;;;;;;;19.83;10.45;;;5.60;99.90;;;;;;6163369;23;20021;-91
2021/03/18 08:38:57;;;;;;;19.02;9.63;;;5.70;99.90;;;;;;6191285;23;20020;-91
2021/03/18 08:41:31;;;;;;;18.67;8.88;;;5.80;99.90;;;;;;6164971;23;20020;-91
2021/03/18 08:44:26;;;;;;;16.52;7.93;;;5.90;99.90;;;;;;6142904;23;20118;-91
2021/03/18 08:46:55;;;;;;;14.68;8.18;;;6.10;99.90;;;;;;6113547;23;20020;-91
2021/03/18 08:49:30;;;;;;;18.88;9.25;;;6.20;99.90;;;;;;6152146;23;20316;-90
2021/03/18 08:52:01;;;;;;;18.27;7.68;;;6.20;99.90;;;;;;6179557;23;20009;-86
2021/03/18 08:54:54;;;;;;;12.45;7.95;;;6.00;99.90;;;;;;6177958;23;20028;-89
2021/03/18 08:57:29;;;;;;;16.92;8.30;;;6.10;99.90;;;;;;6179861;23;20021;-87
2021/03/18 08:59:58;;;;;;;13.70;8.48;;;6.10;99.90;;;;;;6159189;23;20023;-87
2021/03/18 09:02:32;;;;;;;19.67;8.25;;;6.20;99.90;;;;;;6183591;23;20143;-87
2021/03/18 09:05:04;;;;;;;26.00;10.05;;;6.20;99.90;;;;;;6129466;23;20025;-89
2021/03/18 09:07:33;;;;;;;19.83;8.77;;;6.60;99.90;;;;;;6159384;23;20008;-88
2021/03/18 09:10:09;;;;;;;21.85;9.07;;;6.90;99.90;;;;;;6142472;23;20027;-87
2021/03/18 09:12:41;;;;;;;14.95;8.63;;;7.00;99.90;;;;;;6137126;23;20025;-89
2021/03/18 09:15:15;;;;;;;18.40;8.68;;;7.20;99.90;;;;;;6137430;23;20021;-90
2021/03/18 09:17:45;;;;;;;23.15;8.23;;;7.20;99.90;;;;;;6161916;23;20060;-90
2021/03/18 09:20:17;;;;;;;22.33;8.30;;;7.20;99.90;;;;;;6137914;23;20017;-88
2021/03/18 09:22:46;;;;;;;13.73;7.75;;;7.40;99.90;;;;;;6162602;23;20017;-89
2021/03/18 09:25:16;;;;;;;12.63;7.32;;;7.70;99.90;;;;;;6138797;23;20020;-91
2021/03/18 09:27:48;;;;;;;13.55;7.85;;;7.40;99.90;;;;;;6146788;23;20021;-87
2021/03/18 09:30:30;;;;;;;17.13;8.55;;;6.70;99.90;;;;;;6189422;23;20289;-91
2021/03/18 09:32:58;;;;;;;12.70;7.85;;;6.40;99.90;;;;;;6164706;23;20028;-90
2021/03/18 09:35:27;;;;;;;13.60;7.72;;;6.20;99.90;;;;;;6139800;23;20025;-89
2021/03/18 09:37:57;;;;;;;15.25;7.95;;;6.10;99.90;;;;;;6165417;23;20336;-89
2021/03/18 09:40:33;;;;;;;21.85;7.22;;;6.00;99.90;;;;;;6174388;23;20021;-84
2021/03/18 09:43:02;;;;;;;12.90;7.55;;;5.80;99.90;;;;;;6141203;23;20021;-92
2021/03/18 09:45:33;;;;;;;18.48;7.85;;;5.80;99.90;;;;;;6141731;23;20024;-88
2021/03/18 09:48:00;;;;;;;13.38;7.18;;;6.10;99.90;;;;;;6141953;23;20020;-90
2021/03/18 09:50:32;;;;;;;13.23;6.20;;;6.50;99.90;;;;;;6140503;23;20017;-91
2021/03/18 09:53:10;;;;;;;13.35;6.85;;;6.80;99.90;;;;;;6166974;23;20020;-90
2021/03/18 09:55:39;;;;;;;21.02;7.38;;;7.00;99.90;;;;;;6140732;23;20025;-91
2021/03/18 09:58:14;;;;;;;15.50;7.82;;;7.50;99.90;;;;;;6144556;23;20017;-90
2021/03/18 10:00:53;;;;;;;12.93;7.30;;;7.80;99.90;;;;;;6178123;23;20060;-91
2021/03/18 10:03:23;;;;;;;13.82;6.90;;;7.70;99.90;;;;;;6152862;23;20247;-87
2021/03/18 10:05:51;;;;;;;14.68;7.00;;;7.70;99.90;;;;;;6177273;23;20021;-89
2021/03/18 10:08:23;;;;;;;9.98;6.13;;;7.90;99.90;;;;;;6150587;23;20021;-88
2021/03/18 10:10:50;;;;;;;12.25;7.03;;;8.20;99.80;;;;;;6153634;23;20013;-89
2021/03/18 10:13:19;;;;;;;11.48;6.38;;;8.40;99.40;;;;;;6180731;23;20017;-90
2021/03/18 10:15:46;;;;;;;10.20;5.95;;;8.60;95.90;;;;;;6147530;23;20025;-89
2021/03/18 10:18:14;;;;;;;20.70;6.88;;;8.60;96.60;;;;;;6141973;23;20035;-88
2021/03/18 10:20:42;;;;;;;12.25;7.03;;;8.90;95.90;;;;;;6141416;23;20027;-89
2021/03/18 10:23:12;;;;;;;32.72;8.98;;;9.20;95.10;;;;;;6140898;23;20320;-86
2021/03/18 10:25:41;;;;;;;22.30;6.68;;;9.60;93.60;;;;;;6167126;23;20031;-86
2021/03/18 10:28:10;;;;;;;13.95;7.10;;;10.10;91.60;;;;;;6140520;23;20033;-86
2021/03/18 10:30:40;;;;;;;13.23;6.07;;;10.60;90.10;;;;;;6139583;23;20013;-86
2021/03/18 10:33:13;;;;;;;23.98;8.27;;;11.00;82.80;;;;;;6163973;23;20054;-87
2021/03/18 10:35:43;;;;;;;11.82;6.30;;;10.70;79.40;;;;;;6141388;23;20021;-87
2021/03/18 10:38:15;;;;;;;14.52;6.80;;;9.60;82.70;;;;;;6140440;23;20066;-89
2021/03/18 10:40:50;;;;;;;11.20;5.82;;;9.60;86.00;;;;;;6142833;23;20072;-89
2021/03/18 10:43:20;;;;;;;13.70;6.32;;;9.80;87.40;;;;;;6143912;23;20047;-89
2021/03/18 10:45:49;;;;;;;9.02;5.22;;;10.30;86.90;;;;;;6140892;23;20054;-88
2021/03/18 10:48:22;;;;;;;21.50;6.88;;;11.20;79.40;;;;;;6141248;23;20386;-87
2021/03/18 10:50:55;;;;;;;11.13;6.45;;;12.00;74.30;;;;;;6191841;23;20023;-85
2021/03/18 10:53:24;;;;;;;9.60;6.32;;;12.30;69.80;;;;;;6142888;23;20057;-88
2021/03/18 10:55:54;;;;;;;12.00;6.03;;;12.10;68.10;;;;;;6143092;23;20340;-89
2021/03/18 10:58:24;;;;;;;8.48;5.43;;;11.60;69.30;;;;;;6143040;23;20017;-89
2021/03/18 11:01:01;;;;;;;10.18;5.05;;;11.10;69.80;;;;;;6144661;23;20013;-86
2021/03/18 11:03:33;;;;;;;8.68;5.60;;;10.60;72.80;;;;;;6146307;23;20021;-88
2021/03/18 11:06:17;;;;;;;16.25;7.32;;;10.30;75.70;;;;;;6149301;23;20032;-88
2021/03/18 11:08:49;;;;;;;9.98;5.32;;;9.90;80.00;;;;;;6149410;23;20017;-89
2021/03/18 11:11:20;;;;;;;10.30;5.30;;;9.80;80.60;;;;;;6203182;23;20021;-88
2021/03/18 11:13:49;;;;;;;9.70;5.70;;;9.70;80.90;;;;;;6155484;23;20020;-88
2021/03/18 11:16:23;;;;;;;11.65;5.82;;;9.80;82.50;;;;;;6158462;23;20023;-88
2021/03/18 11:18:59;;;;;;;12.15;6.03;;;9.70;82.50;;;;;;6154455;23;20020;-88
2021/03/18 11:21:34;;;;;;;12.75;6.45;;;9.50;83.50;;;;;;6176887;23;20028;-87
2021/03/18 11:24:15;;;;;;;15.40;5.70;;;9.60;84.10;;;;;;6179666;23;20021;-90
2021/03/18 11:26:57;;;;;;;8.52;5.65;;;10.00;79.80;;;;;;6177539;23;20021;-90
2021/03/18 11:29:32;;;;;;;8.35;5.00;;;10.70;79.40;;;;;;6154387;23;20031;-88
2021/03/18 11:32:07;;;;;;;14.90;4.75;;;13.50;71.50;;;;;;6140920;23;20021;-88
2021/03/18 11:34:37;;;;;;;7.72;4.78;;;16.00;58.80;;;;;;6116911;23;20021;-87
2021/03/18 11:37:08;;;;;;;4.70;3.13;;;17.30;50.00;;;;;;6166977;23;20028;-86
2021/03/18 11:39:38;;;;;;;9.73;4.55;;;16.70;47.70;;;;;;6142793;23;20021;-87
2021/03/18 11:42:08;;;;;;;10.02;4.63;;;15.40;49.20;;;;;;6191341;23;20016;-89
2021/03/18 11:44:41;;;;;;;21.65;5.15;;;13.80;53.70;;;;;;6142358;23;20025;-89
2021/03/18 11:47:18;;;;;;;8.48;5.15;;;12.00;59.20;;;;;;6163863;23;20021;-90
2021/03/18 11:49:46;;;;;;;10.90;5.30;;;10.30;72.90;;;;;;6142066;23;20017;-90
2021/03/18 11:52:15;;;;;;;11.10;5.35;;;9.00;87.70;;;;;;6145577;23;20027;-90
2021/03/18 11:54:47;;;;;;;11.02;6.47;;;8.40;99.90;;;;;;6166078;23;20017;-90
2021/03/18 11:57:19;;;;;;;10.63;6.10;;;8.10;99.90;;;;;;6164116;23;20025;-90
2021/03/18 11:59:53;;;;;;;9.73;5.97;;;7.90;99.90;;;;;;6142205;23;20027;-92
2021/03/18 12:02:23;;;;;;;12.77;6.30;;;7.70;99.90;;;;;;6167348;23;20017;-90
2021/03/18 12:04:51;;;;;;;10.65;6.35;;;7.50;99.90;;;;;;6144155;23;20016;-90
2021/03/18 12:07:22;;;;;;;13.05;6.57;;;7.30;99.90;;;;;;6144664;23;20025;-90
2021/03/18 12:10:02;;;;;;;8.82;5.47;;;7.30;99.90;;;;;;6118544;23;20036;-91
2021/03/18 12:12:32;;;;;;;11.68;5.85;;;7.50;99.90;;;;;;6142445;23;20076;-87
2021/03/18 12:15:11;;;;;;;8.10;4.65;;;9.20;99.90;;;;;;6143296;23;20025;-87
2021/03/18 12:17:39;;;;;;;8.98;5.10;;;9.90;99.90;;;;;;6142169;23;20439;-87
2021/03/18 12:20:08;;;;;;;9.85;5.85;;;10.00;99.80;;;;;;6141651;23;20032;-87
2021/03/18 12:22:36;;;;;;;10.85;5.40;;;9.90;98.50;;;;;;6142442;23;20021;-89
2021/03/18 12:25:08;;;;;;;12.75;5.30;;;10.00;94.00;;;;;;6143878;23;20027;-91
2021/03/18 12:27:38;;;;;;;7.35;4.93;;;10.10;91.80;;;;;;6142986;23;20024;-92
2021/03/18 12:30:08;;;;;;;11.05;5.50;;;9.80;90.50;;;;;;6163893;23;20071;-88
2021/03/18 12:32:42;;;;;;;15.55;6.35;;;9.40;91.40;;;;;;6161058;23;20025;-90
2021/03/18 12:35:11;;;;;;;8.63;5.05;;;8.50;94.40;;;;;;6118180;23;20027;-91
2021/03/18 12:37:54;;;;;;;15.20;5.93;;;8.10;96.30;;;;;;6170715;23;20360;-91
2021/03/18 12:40:23;;;;;;;11.45;5.97;;;7.90;97.60;;;;;;6141587;23;20025;-94
2021/03/18 12:42:53;;;;;;;9.57;5.75;;;7.60;98.60;;;;;;6166894;23;20021;-93
2021/03/18 12:45:23;;;;;;;18.95;6.32;;;7.10;99.90;;;;;;6140848;23;20017;-92
2021/03/18 12:47:54;;;;;;;12.70;7.15;;;6.90;99.90;;;;;;6141990;23;20021;-91
2021/03/18 12:50:29;;;;;;;16.05;7.07;;;6.70;99.90;;;;;;6166510;23;20012;-91
2021/03/18 12:53:03;;;;;;;19.25;6.22;;;6.40;99.90;;;;;;6141278;23;20029;-94
2021/03/18 12:55:36;;;;;;;9.80;6.20;;;6.30;99.90;;;;;;6140312;23;20021;-92
2021/03/18 12:58:05;;;;;;;;;;;6.30;99.90;;;;;;6141389;23;20021;-92
2021/03/18 13:00:39;;;;;;;9.40;5.72;;;6.30;99.90;;;;;;6165176;23;19916;-91
2021/03/18 13:03:09;;;;;;;7.70;4.40;;;6.30;99.90;;;;;;6165546;23;20429;-91
2021/03/18 13:05:37;;;;;;;6.72;3.55;;;6.30;99.90;;;;;;6141149;23;20024;-91
2021/03/18 13:08:05;;;;;;;8.98;4.25;;;6.20;99.90;;;;;;6142536;23;20028;-94
2021/03/18 13:10:41;;;;;;;8.25;4.00;;;6.10;99.90;;;;;;6153230;23;20017;-92
2021/03/18 13:13:09;;;;;;;9.93;4.47;;;6.00;99.90;;;;;;6156919;23;20017;-90
2021/03/18 13:15:37;;;;;;;6.72;3.55;;;6.00;99.90;;;;;;6158644;23;20017;-91
2021/03/18 13:18:04;;;;;;;8.45;4.15;;;6.00;99.90;;;;;;6171907;23;20025;-92
2021/03/18 13:20:35;;;;;;;7.63;3.92;;;6.10;99.90;;;;;;6142907;23;20024;-92
2021/03/18 13:23:08;;;;;;;6.47;3.35;;;6.10;99.90;;;;;;6144006;23;20021;-93
2021/03/18 13:25:36;;;;;;;6.93;3.75;;;6.30;99.90;;;;;;6143408;23;20021;-93
2021/03/18 13:28:05;;;;;;;6.20;3.05;;;6.40;99.90;;;;;;6137807;23;20030;-92
2021/03/18 13:30:37;;;;;;;6.10;3.22;;;6.50;99.90;;;;;;6113500;23;20029;-92
2021/03/18 13:33:08;;;;;;;10.05;3.97;;;6.60;99.90;;;;;;6136789;23;20036;-92
2021/03/18 13:35:39;;;;;;;6.85;3.60;;;6.70;99.90;;;;;;6138565;23;20303;-91
2021/03/18 13:38:11;;;;;;;5.80;3.78;;;6.70;99.90;;;;;;6137921;23;20021;-91
2021/03/18 13:40:43;;;;;;;8.85;4.63;;;6.90;99.90;;;;;;6161594;23;20017;-91
2021/03/18 13:43:15;;;;;;;7.63;3.03;;;7.40;99.90;;;;;;6162261;23;20109;-92
2021/03/18 13:45:47;;;;;;;8.68;3.85;;;8.00;99.90;;;;;;6140150;23;20018;-89
2021/03/18 13:48:18;;;;;;;7.40;3.22;;;8.60;99.90;;;;;;6163843;23;20021;-91
2021/03/18 13:50:52;;;;;;;6.20;3.20;;;9.00;99.90;;;;;;6138380;23;20014;-91
2021/03/18 13:53:22;;;;;;;5.80;3.20;;;9.20;99.90;;;;;;6161021;23;20025;-90
2021/03/18 13:55:50;;;;;;;7.05;3.45;;;9.10;99.90;;;;;;6140101;23;20032;-90
2021/03/18 13:58:21;;;;;;;13.50;4.05;;;8.90;99.90;;;;;;6165087;23;20024;-89
2021/03/18 14:00:52;;;;;;;5.78;3.35;;;8.60;99.90;;;;;;6140219;23;20020;-91
2021/03/18 14:03:21;;;;;;;6.18;3.33;;;8.30;99.90;;;;;;6136631;23;20017;-90
2021/03/18 14:05:56;;;;;;;6.93;3.97;;;7.80;99.90;;;;;;6136606;23;20325;-91